Time;durP1;ratioP1;P1;durP2;ratioP2;P2;SDS_P1;SDS_P2;PMS_P1;PMS_P2;Temp;Humidity;BMP_temperature;BMP_pressure;BME280_temperature;BME280_humidity;BME280_pressure;Samples;Min_cycle;Max_cycle;Signal;HPM_P1;HPM_P2
2021/03/16 00:00:11;;;;;;;3.00;1.80;;;6.10;99.90;;;;;;4922049;29;20259;-80
2021/03/16 00:02:37;;;;;;;6.50;2.77;;;6.10;99.90;;;;;;4922485;29;20372;-80
2021/03/16 00:05:04;;;;;;;7.80;2.20;;;6.10;99.90;;;;;;4922065;29;20452;-80
2021/03/16 00:07:30;;;;;;;3.00;1.73;;;6.10;99.90;;;;;;4921872;29;20468;-80
2021/03/16 00:09:56;;;;;;;3.97;2.10;;;6.10;99.90;;;;;;4923407;29;20404;-79
2021/03/16 00:12:21;;;;;;;3.53;1.83;;;6.00;99.90;;;;;;4922484;29;20375;-80
2021/03/16 00:14:47;;;;;;;6.80;2.40;;;5.90;99.90;;;;;;4923618;29;20630;-80
2021/03/16 00:17:13;;;;;;;1.83;1.73;;;5.90;99.90;;;;;;4923570;29;20169;-80
2021/03/16 00:19:39;;;;;;;4.03;2.23;;;5.90;99.90;;;;;;4922802;29;20659;-80
2021/03/16 00:22:05;;;;;;;6.80;3.57;;;5.90;99.90;;;;;;4923354;29;20153;-80
2021/03/16 00:24:31;;;;;;;7.33;2.80;;;5.90;99.90;;;;;;4923945;29;20379;-80
2021/03/16 00:26:57;;;;;;;4.67;2.77;;;5.80;99.90;;;;;;4923645;29;20423;-80
2021/03/16 00:29:22;;;;;;;6.10;2.30;;;5.80;99.90;;;;;;4921870;29;20423;-80
2021/03/16 00:31:48;;;;;;;4.60;1.77;;;5.80;99.90;;;;;;4922769;29;20203;-80
2021/03/16 00:34:14;;;;;;;2.33;1.60;;;5.70;99.90;;;;;;4923463;29;20169;-81
2021/03/16 00:36:40;;;;;;;8.50;2.57;;;5.80;99.90;;;;;;4921641;29;20211;-81
2021/03/16 00:39:06;;;;;;;5.80;2.23;;;5.80;99.90;;;;;;4924955;29;20589;-78
2021/03/16 00:41:32;;;;;;;5.87;2.63;;;5.80;99.90;;;;;;4928024;29;20165;-80
2021/03/16 00:43:59;;;;;;;2.37;2.00;;;5.80;99.90;;;;;;4927802;29;20470;-80
2021/03/16 00:46:25;;;;;;;3.57;2.23;;;5.70;99.90;;;;;;4929327;29;20371;-79
2021/03/16 00:48:50;;;;;;;4.60;1.70;;;5.80;99.90;;;;;;4924508;29;20844;-80
2021/03/16 00:51:16;;;;;;;9.63;2.40;;;5.80;99.90;;;;;;4922810;29;20165;-80
2021/03/16 00:53:43;;;;;;;7.17;2.40;;;5.80;99.90;;;;;;4921703;29;20165;-80
2021/03/16 00:56:09;;;;;;;8.20;2.00;;;5.80;99.90;;;;;;4925064;29;20172;-80
2021/03/16 00:58:34;;;;;;;9.33;2.87;;;5.80;99.90;;;;;;4926570;29;20371;-80
2021/03/16 01:01:01;;;;;;;2.23;2.03;;;5.80;99.90;;;;;;4925531;29;20283;-81
2021/03/16 01:03:26;;;;;;;2.60;2.40;;;5.80;99.90;;;;;;4926333;29;20161;-80
2021/03/16 01:05:53;;;;;;;3.20;2.40;;;5.90;99.90;;;;;;4925372;29;20389;-80
2021/03/16 01:08:20;;;;;;;2.23;2.03;;;5.90;99.90;;;;;;4928455;29;20204;-80
2021/03/16 01:10:48;;;;;;;8.10;3.13;;;5.80;99.90;;;;;;4940921;29;20380;-80
2021/03/16 01:13:14;;;;;;;9.03;3.10;;;5.80;99.90;;;;;;4926051;29;20376;-80
2021/03/16 01:15:42;;;;;;;7.27;2.10;;;5.80;99.90;;;;;;4924657;29;20390;-80
2021/03/16 01:18:08;;;;;;;3.00;1.87;;;5.60;99.90;;;;;;4925438;29;20412;-80
2021/03/16 01:20:35;;;;;;;3.87;1.87;;;5.70;99.90;;;;;;4925215;29;20425;-80
2021/03/16 01:23:01;;;;;;;2.20;2.10;;;5.60;99.90;;;;;;4929667;29;20394;-78
2021/03/16 01:25:27;;;;;;;3.00;2.27;;;5.60;99.90;;;;;;4935729;29;20513;-78
2021/03/16 01:27:54;;;;;;;2.33;2.13;;;5.50;99.90;;;;;;4940992;29;20161;-81
2021/03/16 01:30:21;;;;;;;8.63;3.20;;;5.40;99.90;;;;;;4926093;29;20161;-81
2021/03/16 01:32:47;;;;;;;3.03;2.17;;;5.30;99.90;;;;;;4925362;29;20389;-80
2021/03/16 01:35:15;;;;;;;3.87;2.40;;;5.40;99.90;;;;;;4925254;29;20470;-80
2021/03/16 01:37:41;;;;;;;3.20;2.00;;;5.40;99.90;;;;;;4924221;29;20407;-80
2021/03/16 01:40:10;;;;;;;8.45;2.67;;;5.30;99.90;;;;;;4924824;29;20865;-80
2021/03/16 01:42:37;;;;;;;9.83;2.70;;;5.30;99.90;;;;;;4925445;29;20165;-80
2021/03/16 01:45:10;;;;;;;9.13;2.93;;;5.30;99.90;;;;;;4924343;29;20376;-80
2021/03/16 01:47:36;;;;;;;2.70;2.07;;;5.30;99.90;;;;;;4925018;29;20393;-80
2021/03/16 01:50:04;;;;;;;6.10;2.53;;;5.30;99.90;;;;;;4925366;29;20882;-80
2021/03/16 01:52:31;;;;;;;5.27;2.60;;;5.30;99.90;;;;;;4925527;29;20368;-81
2021/03/16 01:54:59;;;;;;;5.33;2.67;;;5.40;99.90;;;;;;4924484;29;20380;-80
2021/03/16 01:57:27;;;;;;;4.60;2.27;;;5.40;99.90;;;;;;4925387;29;20789;-80
2021/03/16 01:59:54;;;;;;;3.70;2.33;;;5.40;99.90;;;;;;4925604;29;20444;-80
2021/03/16 02:02:20;;;;;;;4.53;2.80;;;5.40;99.90;;;;;;4925075;29;20393;-80
2021/03/16 02:04:45;;;;;;;19.77;2.87;;;5.40;99.90;;;;;;4924979;29;20890;-81
2021/03/16 02:07:19;;;;;;;3.20;2.10;;;5.40;99.90;;;;;;4924634;29;20197;-81
2021/03/16 02:09:53;;;;;;;4.40;2.40;;;5.50;99.90;;;;;;4924120;29;20173;-81
2021/03/16 02:12:26;;;;;;;3.00;1.97;;;5.40;99.90;;;;;;4924683;29;20438;-81
2021/03/16 02:15:01;;;;;;;4.67;2.63;;;5.50;99.90;;;;;;4924325;29;20434;-80
2021/03/16 02:17:29;;;;;;;7.80;2.30;;;5.40;99.90;;;;;;4923571;29;20390;-80
2021/03/16 02:20:09;;;;;;;7.53;2.17;;;5.40;99.90;;;;;;4925618;29;20423;-79
2021/03/16 02:22:38;;;;;;;4.20;1.87;;;5.30;99.90;;;;;;4924712;29;20518;-79
2021/03/16 02:25:27;;;;;;;2.00;1.73;;;5.10;99.90;;;;;;4924708;29;20400;-79
2021/03/16 02:28:28;;;;;;;6.87;2.73;;;5.20;99.90;;;;;;4924524;29;20389;-79
2021/03/16 02:30:55;;;;;;;1.67;1.40;;;5.20;99.90;;;;;;4923272;29;20405;-79
2021/03/16 02:33:23;;;;;;;6.07;2.60;;;5.20;99.90;;;;;;4924804;29;20386;-79
2021/03/16 02:35:51;;;;;;;8.63;2.23;;;5.20;99.90;;;;;;4924188;29;20409;-80
2021/03/16 02:38:21;;;;;;;12.87;2.10;;;5.20;99.90;;;;;;4924060;29;20375;-80
2021/03/16 02:40:50;;;;;;;3.87;3.53;;;5.30;99.90;;;;;;4924273;29;20776;-79
2021/03/16 02:43:16;;;;;;;5.80;2.27;;;5.30;99.90;;;;;;4924309;29;20400;-79
2021/03/16 02:45:43;;;;;;;10.43;2.93;;;5.30;99.90;;;;;;4924437;29;20405;-79
2021/03/16 02:48:09;;;;;;;2.90;2.03;;;5.30;99.90;;;;;;4923601;29;20415;-79
2021/03/16 02:50:36;;;;;;;11.03;2.53;;;5.40;99.90;;;;;;4924324;29;20754;-79
2021/03/16 02:53:02;;;;;;;3.37;3.07;;;5.30;99.90;;;;;;4923964;29;20886;-80
2021/03/16 02:55:30;;;;;;;7.80;2.03;;;5.30;99.90;;;;;;4922658;29;20402;-79
2021/03/16 02:57:58;;;;;;;6.20;2.10;;;5.40;99.90;;;;;;4923761;29;20371;-79
2021/03/16 03:00:25;;;;;;;2.70;1.53;;;5.40;99.90;;;;;;4923885;29;20773;-80
2021/03/16 03:02:51;;;;;;;1.93;1.63;;;5.30;99.90;;;;;;4923965;29;20462;-80
2021/03/16 03:05:19;;;;;;;2.27;1.50;;;5.30;99.90;;;;;;4923370;29;20394;-79
2021/03/16 03:07:45;;;;;;;3.83;2.10;;;5.40;99.90;;;;;;4924518;29;20407;-79
2021/03/16 03:10:12;;;;;;;6.40;1.53;;;5.30;99.90;;;;;;4924132;29;20742;-79
2021/03/16 03:12:37;;;;;;;5.50;2.00;;;5.30;99.90;;;;;;4931377;29;20431;-77
2021/03/16 03:15:08;;;;;;;1.50;1.40;;;5.30;99.90;;;;;;4932706;29;20372;-77
2021/03/16 03:17:34;;;;;;;2.50;1.53;;;5.40;99.90;;;;;;4932012;29;20236;-77
2021/03/16 03:20:00;;;;;;;16.57;2.00;;;5.30;99.90;;;;;;4932136;29;20441;-77
2021/03/16 03:22:36;;;;;;;3.03;2.10;;;5.30;99.90;;;;;;4930536;29;20393;-79
2021/03/16 03:25:07;;;;;;;4.57;1.70;;;5.30;99.90;;;;;;4924556;29;20172;-80
2021/03/16 03:27:38;;;;;;;5.77;2.33;;;5.30;99.90;;;;;;4923587;29;20498;-79
2021/03/16 03:30:05;;;;;;;3.43;2.23;;;5.30;99.90;;;;;;4938139;29;20387;-79
2021/03/16 03:32:34;;;;;;;3.60;2.30;;;5.40;99.90;;;;;;4923217;29;20435;-79
2021/03/16 03:35:01;;;;;;;1.40;1.30;;;5.40;99.90;;;;;;4923023;29;20472;-78
2021/03/16 03:37:29;;;;;;;6.40;2.00;;;5.40;99.90;;;;;;4923477;29;20434;-79
2021/03/16 03:39:56;;;;;;;4.30;1.87;;;5.40;99.90;;;;;;4921930;29;20508;-79
2021/03/16 03:42:24;;;;;;;5.97;2.40;;;5.50;99.90;;;;;;4923808;29;20367;-80
2021/03/16 03:44:51;;;;;;;3.43;2.00;;;5.50;99.90;;;;;;4923600;29;20823;-80
2021/03/16 03:47:18;;;;;;;5.70;2.50;;;5.50;99.90;;;;;;4937884;29;20452;-80
2021/03/16 03:49:45;;;;;;;7.03;2.93;;;5.50;99.90;;;;;;4922162;29;20499;-80
2021/03/16 03:52:14;;;;;;;4.70;2.30;;;5.50;99.90;;;;;;4923692;29;20390;-79
2021/03/16 03:54:42;;;;;;;2.30;1.73;;;5.50;99.90;;;;;;4923507;29;20410;-79
2021/03/16 03:57:09;;;;;;;5.63;1.87;;;5.50;99.90;;;;;;4922502;29;20380;-80
2021/03/16 03:59:36;;;;;;;1.73;1.63;;;5.50;99.90;;;;;;4924164;29;20455;-78
2021/03/16 04:02:03;;;;;;;6.93;2.73;;;5.50;99.90;;;;;;4929376;29;20368;-77
2021/03/16 04:04:29;;;;;;;3.53;2.07;;;5.50;99.90;;;;;;4926789;29;20407;-77
2021/03/16 04:06:58;;;;;;;15.20;2.93;;;5.50;99.90;;;;;;4927897;29;20404;-77
2021/03/16 04:09:24;;;;;;;3.83;1.90;;;5.40;99.90;;;;;;4925712;29;20502;-79
2021/03/16 04:11:51;;;;;;;2.63;2.00;;;5.50;99.90;;;;;;4921695;29;20387;-79
2021/03/16 04:14:18;;;;;;;2.07;1.87;;;5.50;99.90;;;;;;4923699;29;20418;-77
2021/03/16 04:16:44;;;;;;;1.90;1.70;;;5.50;99.90;;;;;;4932402;29;20421;-77
2021/03/16 04:19:11;;;;;;;3.00;1.93;;;5.60;99.90;;;;;;4925761;29;20405;-80
2021/03/16 04:21:37;;;;;;;9.80;2.40;;;5.50;99.90;;;;;;4923472;29;20393;-79
2021/03/16 04:24:03;;;;;;;2.17;1.97;;;5.50;99.90;;;;;;4922200;29;20375;-80
2021/03/16 04:26:29;;;;;;;9.70;1.90;;;5.50;99.90;;;;;;4923288;29;20389;-79
2021/03/16 04:28:55;;;;;;;2.60;2.03;;;5.40;99.90;;;;;;4924007;29;20364;-79
2021/03/16 04:31:21;;;;;;;2.30;2.10;;;5.40;99.90;;;;;;4926281;29;20396;-79
2021/03/16 04:33:47;;;;;;;6.60;2.03;;;5.40;99.90;;;;;;4927049;29;20161;-79
2021/03/16 04:36:13;;;;;;;2.40;1.97;;;5.40;99.90;;;;;;4925785;29;20183;-79
2021/03/16 04:38:38;;;;;;;1.50;1.40;;;5.40;99.90;;;;;;4925405;29;20228;-79
2021/03/16 04:41:04;;;;;;;3.43;1.83;;;5.40;99.90;;;;;;4926627;29;20419;-80
2021/03/16 04:43:30;;;;;;;1.63;1.53;;;5.40;99.90;;;;;;4941384;29;20606;-80
2021/03/16 04:45:56;;;;;;;10.67;2.97;;;5.40;99.90;;;;;;4925197;29;20172;-80
2021/03/16 04:48:22;;;;;;;3.67;2.53;;;5.40;99.90;;;;;;4925235;29;20208;-80
2021/03/16 04:50:47;;;;;;;2.10;1.90;;;5.40;99.90;;;;;;4925823;29;20248;-80
2021/03/16 04:53:13;;;;;;;7.50;2.37;;;5.40;99.90;;;;;;4926066;29;20245;-80
2021/03/16 04:55:39;;;;;;;3.40;1.90;;;5.40;99.90;;;;;;4926640;29;20161;-80
2021/03/16 04:58:05;;;;;;;4.00;2.03;;;5.30;99.90;;;;;;4925501;29;20211;-80
2021/03/16 05:00:31;;;;;;;1.83;1.50;;;5.30;99.90;;;;;;4924634;29;20275;-79
2021/03/16 05:02:56;;;;;;;3.33;1.97;;;5.30;99.90;;;;;;4926491;29;20165;-79
2021/03/16 05:05:22;;;;;;;1.77;1.33;;;5.20;99.90;;;;;;4909415;29;20172;-80
2021/03/16 05:07:48;;;;;;;1.60;1.50;;;5.30;99.90;;;;;;4925679;29;20427;-80
2021/03/16 05:10:14;;;;;;;8.10;2.37;;;5.30;99.90;;;;;;4926124;29;20169;-80
2021/03/16 05:12:40;;;;;;;2.43;1.50;;;5.30;99.90;;;;;;4925730;29;20256;-80
2021/03/16 05:15:07;;;;;;;7.20;1.73;;;5.30;99.90;;;;;;4925893;29;20375;-80
2021/03/16 05:17:33;;;;;;;5.83;1.90;;;5.40;99.90;;;;;;4926404;29;20169;-79
2021/03/16 05:19:59;;;;;;;9.90;2.63;;;5.30;99.90;;;;;;4925663;29;20478;-79
2021/03/16 05:22:25;;;;;;;2.60;2.20;;;5.30;99.90;;;;;;4925104;29;20165;-80
2021/03/16 05:24:50;;;;;;;1.77;1.67;;;5.30;99.90;;;;;;4925265;29;20654;-80
2021/03/16 05:27:16;;;;;;;4.13;2.17;;;5.30;99.90;;;;;;4926006;29;20168;-80
2021/03/16 05:29:42;;;;;;;3.00;1.90;;;5.20;99.90;;;;;;4909122;29;20509;-80
2021/03/16 05:32:08;;;;;;;2.00;1.80;;;5.30;99.90;;;;;;4925470;29;20236;-79
2021/03/16 05:34:34;;;;;;;7.43;2.93;;;5.20;99.90;;;;;;4925013;29;20602;-79
2021/03/16 05:37:00;;;;;;;3.73;1.60;;;5.20;99.90;;;;;;4926272;29;20228;-81
2021/03/16 05:39:26;;;;;;;7.57;2.43;;;5.10;99.90;;;;;;4925568;29;20228;-79
2021/03/16 05:41:53;;;;;;;7.23;2.63;;;5.20;99.90;;;;;;4925858;29;20397;-80
2021/03/16 05:44:19;;;;;;;2.20;1.40;;;5.10;99.90;;;;;;4925764;29;20224;-79
2021/03/16 05:46:45;;;;;;;6.93;1.90;;;5.20;99.90;;;;;;4926060;29;20397;-80
2021/03/16 05:49:13;;;;;;;15.70;2.10;;;5.10;99.90;;;;;;4925607;29;20383;-80
2021/03/16 05:51:39;;;;;;;3.23;2.37;;;5.10;99.90;;;;;;4924683;29;20399;-80
2021/03/16 05:54:05;;;;;;;6.20;2.53;;;5.10;99.90;;;;;;4925445;29;20397;-79
2021/03/16 05:56:32;;;;;;;4.20;2.07;;;5.10;99.90;;;;;;4928096;29;20443;-79
2021/03/16 05:58:59;;;;;;;3.13;2.50;;;5.10;99.90;;;;;;4926037;29;20540;-82
2021/03/16 06:01:27;;;;;;;3.40;1.70;;;5.00;99.90;;;;;;4924824;29;20457;-79
2021/03/16 06:03:53;;;;;;;8.23;2.83;;;5.00;99.90;;;;;;4925194;29;20423;-81
2021/03/16 06:06:19;;;;;;;4.33;2.57;;;5.00;99.90;;;;;;4919829;29;20264;-81
2021/03/16 06:08:45;;;;;;;9.27;3.57;;;5.00;99.90;;;;;;4906139;29;20193;-81
2021/03/16 06:11:11;;;;;;;2.97;2.30;;;5.00;99.90;;;;;;4920323;29;20425;-81
2021/03/16 06:13:49;;;;;;;4.70;2.30;;;5.00;99.90;;;;;;4922337;29;20172;-81
2021/03/16 06:16:16;;;;;;;9.03;2.27;;;5.00;99.90;;;;;;4919765;29;20872;-80
2021/03/16 06:18:44;;;;;;;2.13;1.93;;;5.00;99.90;;;;;;4908964;29;20403;-80
2021/03/16 06:21:10;;;;;;;3.77;2.70;;;5.00;99.90;;;;;;4905142;29;20454;-80
2021/03/16 06:23:37;;;;;;;15.13;3.00;;;5.00;99.90;;;;;;4907028;29;20810;-81
2021/03/16 06:26:11;;;;;;;8.93;2.17;;;5.00;99.90;;;;;;4923377;29;20480;-81
2021/03/16 06:28:37;;;;;;;2.33;2.00;;;5.10;99.90;;;;;;4924243;29;20380;-81
2021/03/16 06:31:04;;;;;;;13.80;2.77;;;5.10;99.90;;;;;;4923197;29;20379;-81
2021/03/16 06:33:32;;;;;;;6.30;3.57;;;5.10;99.90;;;;;;4923648;29;20380;-80
2021/03/16 06:36:07;;;;;;;10.20;2.60;;;5.10;99.90;;;;;;4931226;29;20789;-80
2021/03/16 06:38:34;;;;;;;3.20;2.60;;;5.10;99.90;;;;;;4904220;29;20440;-80
2021/03/16 06:41:10;;;;;;;6.30;2.90;;;5.10;99.90;;;;;;4939206;29;20444;-80
2021/03/16 06:43:37;;;;;;;13.90;3.20;;;5.10;99.90;;;;;;4939595;29;20532;-80
2021/03/16 06:46:03;;;;;;;10.83;2.80;;;5.20;99.90;;;;;;4926995;29;20386;-81
2021/03/16 06:48:34;;;;;;;5.80;3.13;;;5.20;99.90;;;;;;4938485;29;20402;-80
2021/03/16 06:51:11;;;;;;;5.93;3.67;;;5.30;99.90;;;;;;4922804;29;20528;-80
2021/03/16 06:53:37;;;;;;;10.43;4.67;;;5.30;99.90;;;;;;4923476;29;20467;-80
2021/03/16 06:56:04;;;;;;;8.43;2.57;;;5.30;99.90;;;;;;4923198;29;20463;-79
2021/03/16 06:58:31;;;;;;;11.00;5.10;;;5.30;99.90;;;;;;4935084;29;20428;-80
2021/03/16 07:01:07;;;;;;;10.73;5.67;;;5.40;99.90;;;;;;4899150;29;20469;-80
2021/03/16 07:03:34;;;;;;;16.73;3.40;;;5.50;99.90;;;;;;4905814;29;20433;-80
2021/03/16 07:06:13;;;;;;;4.70;4.30;;;5.60;99.90;;;;;;4904246;29;20531;-80
2021/03/16 07:08:41;;;;;;;6.50;2.77;;;5.60;99.90;;;;;;4922409;29;20546;-77
2021/03/16 07:11:12;;;;;;;5.73;2.73;;;5.60;99.90;;;;;;4927480;29;20423;-80
2021/03/16 07:13:39;;;;;;;4.30;2.73;;;5.70;99.90;;;;;;4939205;29;20667;-80
2021/03/16 07:16:06;;;;;;;10.20;3.45;;;5.70;99.90;;;;;;4927132;29;20812;-80
2021/03/16 07:18:35;;;;;;;10.00;4.73;;;5.70;99.90;;;;;;4927159;29;20246;-81
2021/03/16 07:21:05;;;;;;;15.70;6.80;;;5.80;99.90;;;;;;4920702;29;20466;-81
2021/03/16 07:23:38;;;;;;;7.00;3.43;;;5.80;99.90;;;;;;4914495;29;20975;-81
2021/03/16 07:26:05;;;;;;;4.23;2.80;;;5.80;99.90;;;;;;4911642;29;20520;-81
2021/03/16 07:28:32;;;;;;;6.70;4.07;;;5.80;99.90;;;;;;4919462;29;20783;-81
2021/03/16 07:30:58;;;;;;;4.33;2.83;;;5.90;99.90;;;;;;4918139;29;20399;-81
2021/03/16 07:33:27;;;;;;;9.47;2.90;;;5.90;99.90;;;;;;4918844;29;20397;-80
2021/03/16 07:35:53;;;;;;;7.90;3.40;;;5.90;99.90;;;;;;4909822;29;20430;-81
2021/03/16 07:38:18;;;;;;;6.10;2.17;;;5.90;99.90;;;;;;4917584;29;20482;-80
2021/03/16 07:40:45;;;;;;;3.13;2.57;;;6.00;99.90;;;;;;4903151;29;20201;-80
2021/03/16 07:43:11;;;;;;;2.53;2.33;;;6.00;99.90;;;;;;4908265;29;20165;-81
2021/03/16 07:45:39;;;;;;;5.40;2.80;;;6.00;99.90;;;;;;4919398;29;20407;-81
2021/03/16 07:48:20;;;;;;;5.37;2.20;;;6.10;99.90;;;;;;4922676;29;20436;-81
2021/03/16 07:50:46;;;;;;;4.80;2.83;;;6.20;99.90;;;;;;4891990;29;20420;-80
2021/03/16 07:53:28;;;;;;;6.03;2.03;;;6.30;99.90;;;;;;4912362;29;20923;-80
2021/03/16 07:56:05;;;;;;;4.43;3.17;;;6.30;99.90;;;;;;4911407;29;20387;-81
2021/03/16 07:58:41;;;;;;;7.43;2.00;;;6.40;99.90;;;;;;4918219;29;20471;-81
2021/03/16 08:01:07;;;;;;;3.67;2.47;;;6.30;99.90;;;;;;4917062;29;20487;-81
2021/03/16 08:03:33;;;;;;;4.90;2.00;;;6.50;99.90;;;;;;4904280;29;20410;-81
2021/03/16 08:05:59;;;;;;;2.30;2.10;;;6.50;99.90;;;;;;4907400;29;20165;-81
2021/03/16 08:08:25;;;;;;;2.53;2.33;;;6.60;99.90;;;;;;4923747;29;20221;-81
2021/03/16 08:10:50;;;;;;;3.10;2.37;;;6.50;99.90;;;;;;4926744;29;20186;-81
2021/03/16 08:13:18;;;;;;;3.53;1.97;;;6.50;99.90;;;;;;4916577;29;20187;-80
2021/03/16 08:15:48;;;;;;;5.00;2.30;;;6.60;99.90;;;;;;4910670;29;20709;-80
2021/03/16 08:18:27;;;;;;;4.60;2.63;;;6.50;99.90;;;;;;4920499;29;20421;-80
2021/03/16 08:20:53;;;;;;;4.70;2.60;;;6.50;99.90;;;;;;4938435;29;20438;-81
2021/03/16 08:23:19;;;;;;;2.90;2.27;;;6.50;99.90;;;;;;4894030;29;20527;-80
2021/03/16 08:25:48;;;;;;;4.60;2.43;;;6.50;99.90;;;;;;4920088;29;20772;-80
2021/03/16 08:28:17;;;;;;;1.83;1.67;;;6.40;99.90;;;;;;4916180;29;20262;-80
2021/03/16 08:30:42;;;;;;;4.03;2.37;;;6.60;99.90;;;;;;4906919;29;20421;-80
2021/03/16 08:33:11;;;;;;;2.70;2.07;;;6.60;99.90;;;;;;4925937;29;20425;-80
2021/03/16 08:35:40;;;;;;;2.13;2.00;;;6.70;99.90;;;;;;4915827;29;20180;-80
2021/03/16 08:38:07;;;;;;;8.60;2.83;;;6.70;99.90;;;;;;4921498;29;20491;-80
2021/03/16 08:40:33;;;;;;;5.77;2.57;;;6.70;99.90;;;;;;4908098;29;20497;-80
2021/03/16 08:43:00;;;;;;;5.53;2.50;;;6.80;99.90;;;;;;4912714;29;20398;-80
2021/03/16 08:45:29;;;;;;;3.50;2.30;;;6.80;99.90;;;;;;4898056;29;20608;-80
2021/03/16 08:47:54;;;;;;;6.97;2.40;;;6.90;99.90;;;;;;4932994;29;20441;-78
2021/03/16 08:50:23;;;;;;;3.57;2.43;;;6.80;99.90;;;;;;4919222;29;20840;-80
2021/03/16 08:52:49;;;;;;;4.10;2.87;;;6.80;99.90;;;;;;4902053;29;20192;-79
2021/03/16 08:55:25;;;;;;;7.90;2.83;;;6.80;99.90;;;;;;4913025;29;20426;-80
2021/03/16 08:57:52;;;;;;;3.50;2.17;;;6.80;99.90;;;;;;4930296;29;20181;-80
2021/03/16 09:00:23;;;;;;;4.10;3.50;;;6.90;99.90;;;;;;4911728;29;20482;-81
2021/03/16 09:02:49;;;;;;;3.63;2.03;;;7.00;99.90;;;;;;4916518;29;20441;-81
2021/03/16 09:05:25;;;;;;;1.60;1.50;;;7.00;99.90;;;;;;4921421;29;20425;-81
2021/03/16 09:07:56;;;;;;;17.87;3.13;;;7.10;99.90;;;;;;4921499;29;20455;-80
2021/03/16 09:10:22;;;;;;;5.80;2.70;;;7.20;99.90;;;;;;4925127;29;20794;-80
2021/03/16 09:12:49;;;;;;;9.23;4.00;;;7.10;99.90;;;;;;4924137;29;20439;-80
2021/03/16 09:15:33;;;;;;;7.30;2.90;;;7.10;99.90;;;;;;4912021;29;20396;-80
2021/03/16 09:18:02;;;;;;;3.63;2.17;;;7.20;99.90;;;;;;4934844;29;20455;-81
2021/03/16 09:20:31;;;;;;;2.80;1.77;;;7.20;99.90;;;;;;4921647;29;20458;-80
2021/03/16 09:23:00;;;;;;;2.40;1.83;;;7.30;99.90;;;;;;4910175;29;20425;-80
2021/03/16 09:25:28;;;;;;;7.60;2.60;;;7.30;99.90;;;;;;4911123;29;20445;-80
2021/03/16 09:28:01;;;;;;;4.03;2.13;;;7.40;99.90;;;;;;4919487;29;20444;-80
2021/03/16 09:30:32;;;;;;;3.63;2.37;;;7.30;99.90;;;;;;4921288;29;20424;-80
2021/03/16 09:32:59;;;;;;;4.10;2.30;;;7.30;99.90;;;;;;4908384;29;20423;-80
2021/03/16 09:35:25;;;;;;;1.50;1.40;;;7.30;99.90;;;;;;4908230;29;20457;-79
2021/03/16 09:37:53;;;;;;;1.60;1.50;;;7.20;99.90;;;;;;4924093;29;20417;-80
2021/03/16 09:40:32;;;;;;;3.80;1.73;;;7.00;99.90;;;;;;4928408;29;20473;-81
2021/03/16 09:43:00;;;;;;;1.83;1.50;;;7.10;99.90;;;;;;4904593;29;20441;-81
2021/03/16 09:45:30;;;;;;;7.93;2.60;;;7.10;99.90;;;;;;4910776;29;20865;-81
2021/03/16 09:47:57;;;;;;;4.30;1.83;;;7.20;99.90;;;;;;4916842;29;20417;-81
2021/03/16 09:50:33;;;;;;;3.93;1.50;;;7.10;99.90;;;;;;4908392;29;20911;-80
2021/03/16 09:53:02;;;;;;;2.10;1.90;;;7.20;99.90;;;;;;4918302;29;20464;-80
2021/03/16 09:55:29;;;;;;;6.70;1.70;;;7.10;99.90;;;;;;4908151;29;20411;-80
2021/03/16 09:57:58;;;;;;;4.03;2.30;;;7.10;99.90;;;;;;4930776;29;20675;-81
2021/03/16 10:00:27;;;;;;;7.13;2.50;;;7.20;99.90;;;;;;4917134;29;20920;-80
2021/03/16 10:03:09;;;;;;;2.13;1.80;;;7.30;99.90;;;;;;4924756;29;20523;-79
2021/03/16 10:05:35;;;;;;;3.77;2.50;;;7.40;99.90;;;;;;4917994;29;20428;-82
2021/03/16 10:08:01;;;;;;;3.50;1.77;;;7.50;99.90;;;;;;4912415;29;20448;-80
2021/03/16 10:10:33;;;;;;;1.43;1.30;;;7.80;99.90;;;;;;4891614;29;20629;-80
2021/03/16 10:13:02;;;;;;;2.10;1.47;;;8.10;99.90;;;;;;4911299;29;20493;-80
2021/03/16 10:15:33;;;;;;;3.83;1.53;;;8.20;99.90;;;;;;4913022;29;20417;-80
2021/03/16 10:18:01;;;;;;;1.83;1.60;;;8.10;99.90;;;;;;4924892;29;20507;-80
2021/03/16 10:20:31;;;;;;;2.03;1.83;;;8.20;99.90;;;;;;4918383;29;20520;-80
2021/03/16 10:22:59;;;;;;;2.30;1.20;;;8.20;99.90;;;;;;4927650;29;20923;-80
2021/03/16 10:25:27;;;;;;;1.93;1.80;;;8.10;99.90;;;;;;4928968;29;20433;-81
2021/03/16 10:27:55;;;;;;;13.83;3.70;;;8.10;99.90;;;;;;4916781;29;20425;-81
2021/03/16 10:30:32;;;;;;;1.47;1.33;;;7.90;99.90;;;;;;4910681;29;20428;-80
2021/03/16 10:32:58;;;;;;;2.00;1.90;;;7.80;99.90;;;;;;4923489;29;20456;-81
2021/03/16 10:35:24;;;;;;;4.30;3.37;;;7.90;99.90;;;;;;4920329;29;20751;-80
2021/03/16 10:37:50;;;;;;;5.30;1.63;;;7.80;99.90;;;;;;4892801;29;20460;-80
2021/03/16 10:40:17;;;;;;;1.60;1.43;;;7.80;99.90;;;;;;4916227;29;20477;-80
2021/03/16 10:42:42;;;;;;;6.10;1.97;;;7.70;99.90;;;;;;4909454;29;20899;-80
2021/03/16 10:45:09;;;;;;;4.70;1.60;;;7.70;99.90;;;;;;4889235;29;20441;-80
2021/03/16 10:47:35;;;;;;;2.80;1.70;;;7.60;99.90;;;;;;4911686;29;20177;-80
2021/03/16 10:50:00;;;;;;;6.87;2.30;;;7.60;99.90;;;;;;4920441;29;20508;-79
2021/03/16 10:52:26;;;;;;;5.73;2.50;;;8.00;99.90;;;;;;4895389;29;20210;-80
2021/03/16 10:54:52;;;;;;;1.57;1.43;;;8.10;99.90;;;;;;4909623;29;20313;-80
2021/03/16 10:57:18;;;;;;;1.60;1.50;;;8.20;99.90;;;;;;4907410;29;20181;-79
2021/03/16 10:59:44;;;;;;;4.40;1.73;;;8.20;99.90;;;;;;4912985;29;20693;-80
2021/03/16 11:02:10;;;;;;;5.27;1.67;;;8.10;99.90;;;;;;4893249;29;20185;-79
2021/03/16 11:04:36;;;;;;;1.73;1.47;;;7.90;99.90;;;;;;4915689;29;20425;-80
2021/03/16 11:07:03;;;;;;;6.50;1.90;;;7.80;99.90;;;;;;4897112;29;20455;-80
2021/03/16 11:09:28;;;;;;;3.13;1.70;;;7.80;99.90;;;;;;4914279;29;20453;-80
2021/03/16 11:11:54;;;;;;;11.77;3.30;;;8.00;99.90;;;;;;4921197;29;20425;-78
2021/03/16 11:14:20;;;;;;;8.23;1.30;;;8.10;99.90;;;;;;4928720;29;20173;-78
2021/03/16 11:16:46;;;;;;;2.10;1.90;;;8.00;99.90;;;;;;4917245;29;20207;-78
2021/03/16 11:19:12;;;;;;;2.37;1.77;;;8.00;99.90;;;;;;4919571;29;20177;-77
2021/03/16 11:21:38;;;;;;;2.10;1.90;;;8.00;99.90;;;;;;4922687;29;20537;-79
2021/03/16 11:24:04;;;;;;;7.00;2.23;;;8.00;99.90;;;;;;4893197;29;20409;-79
2021/03/16 11:26:30;;;;;;;3.07;1.53;;;8.00;99.90;;;;;;4889853;29;20178;-81
2021/03/16 11:28:56;;;;;;;3.37;2.47;;;7.90;99.90;;;;;;4911865;29;20480;-79
2021/03/16 11:31:22;;;;;;;5.03;2.10;;;7.90;99.90;;;;;;4905539;29;20170;-80
2021/03/16 11:33:47;;;;;;;7.97;2.10;;;7.80;99.90;;;;;;4904925;29;20181;-80
2021/03/16 11:36:14;;;;;;;6.43;1.37;;;7.80;99.90;;;;;;4906320;29;20188;-79
2021/03/16 11:38:41;;;;;;;7.53;2.10;;;7.80;99.90;;;;;;4909942;29;20269;-79
2021/03/16 11:41:07;;;;;;;4.83;1.83;;;7.90;99.90;;;;;;4905697;29;20463;-79
2021/03/16 11:43:33;;;;;;;1.90;1.53;;;8.00;99.90;;;;;;4908691;29;20448;-80
2021/03/16 11:45:59;;;;;;;1.80;1.70;;;8.00;99.90;;;;;;4907199;29;20428;-80
2021/03/16 11:48:25;;;;;;;4.90;2.10;;;8.10;99.90;;;;;;4907576;29;20425;-81
2021/03/16 11:50:51;;;;;;;7.37;1.70;;;8.10;99.90;;;;;;4910611;29;20217;-81
2021/03/16 11:53:17;;;;;;;3.40;2.10;;;8.00;99.90;;;;;;4909126;29;20177;-80
2021/03/16 11:55:43;;;;;;;4.77;2.90;;;8.10;99.90;;;;;;4906834;29;20421;-82
2021/03/16 11:58:08;;;;;;;7.50;2.07;;;8.00;99.90;;;;;;4906574;29;20181;-81
2021/03/16 12:00:34;;;;;;;1.60;1.50;;;8.00;99.90;;;;;;4912453;29;20460;-79
2021/03/16 12:03:00;;;;;;;4.53;1.90;;;8.10;99.90;;;;;;4923231;29;20169;-80
2021/03/16 12:05:26;;;;;;;3.73;2.60;;;8.10;99.90;;;;;;4921793;29;20248;-81
2021/03/16 12:07:52;;;;;;;3.93;2.20;;;8.10;99.90;;;;;;4922056;29;20565;-81
2021/03/16 12:10:18;;;;;;;7.93;2.80;;;8.10;99.90;;;;;;4909065;29;20428;-81
2021/03/16 12:12:44;;;;;;;3.53;2.27;;;8.00;99.90;;;;;;4919373;29;20177;-81
2021/03/16 12:15:13;;;;;;;6.00;1.80;;;7.90;99.90;;;;;;4905122;29;20181;-81
2021/03/16 12:17:39;;;;;;;2.13;1.93;;;7.90;99.90;;;;;;4932970;29;20449;-81
2021/03/16 12:20:06;;;;;;;1.80;1.70;;;7.80;99.90;;;;;;4919273;29;20462;-81
2021/03/16 12:22:32;;;;;;;3.40;1.80;;;7.60;99.90;;;;;;4917796;29;20188;-81
2021/03/16 12:24:58;;;;;;;13.10;2.60;;;7.70;99.90;;;;;;4910266;29;20453;-80
2021/03/16 12:27:24;;;;;;;2.70;2.17;;;7.60;99.90;;;;;;4902289;29;20433;-80
2021/03/16 12:29:51;;;;;;;3.20;1.87;;;7.60;99.90;;;;;;4915246;29;20267;-81
2021/03/16 12:32:17;;;;;;;5.30;3.13;;;7.60;99.90;;;;;;4902492;29;20192;-81
2021/03/16 12:34:43;;;;;;;3.53;1.90;;;7.70;99.90;;;;;;4903213;29;20534;-80
2021/03/16 12:37:09;;;;;;;6.00;2.60;;;7.80;99.90;;;;;;4915246;29;20204;-80
2021/03/16 12:39:35;;;;;;;2.40;2.03;;;7.90;99.90;;;;;;4918514;29;20229;-81
2021/03/16 12:42:03;;;;;;;5.43;1.50;;;7.90;99.90;;;;;;4906591;29;20225;-81
2021/03/16 12:44:30;;;;;;;5.07;2.30;;;8.00;99.90;;;;;;4912491;29;20425;-81
2021/03/16 12:46:59;;;;;;;5.63;2.30;;;8.10;99.90;;;;;;4903137;29;20755;-80
2021/03/16 12:49:25;;;;;;;5.33;2.03;;;8.20;99.90;;;;;;4916129;29;20561;-80
2021/03/16 12:51:52;;;;;;;3.57;2.13;;;8.10;99.90;;;;;;4918314;29;20432;-79
2021/03/16 12:54:18;;;;;;;4.90;2.17;;;8.00;99.90;;;;;;4915946;29;20177;-78
2021/03/16 12:56:44;;;;;;;2.03;1.70;;;8.10;99.90;;;;;;4925804;29;20416;-80